Time;durP1;ratioP1;P1;durP2;ratioP2;P2;SDS_P1;SDS_P2;PMS_P1;PMS_P2;Temp;Humidity;BMP_temperature;BMP_pressure;BME280_temperature;BME280_humidity;BME280_pressure;Samples;Min_cycle;Max_cycle;Signal;HPM_P1;HPM_P2
2023/03/05 00:02:12;;;;;;;26.42;13.85;;;;;;;;;;10174674;29;20055;-80
2023/03/05 00:07:13;;;;;;;27.65;13.25;;;;;;;;;;10194250;29;20059;-78
2023/03/05 00:12:14;;;;;;;28.58;13.40;;;;;;;;;;10168203;29;20083;-77
2023/03/05 00:17:15;;;;;;;28.25;13.93;;;;;;;;;;10217097;29;20080;-81
2023/03/05 00:22:17;;;;;;;29.83;14.13;;;;;;;;;;10203278;29;20687;-80
2023/03/05 00:27:18;;;;;;;30.33;14.10;;;;;;;;;;10201250;29;20058;-81
2023/03/05 00:32:39;;;;;;;35.95;15.20;;;;;;;;;;10198197;29;20051;-79
2023/03/05 00:37:43;;;;;;;36.75;15.52;;;;;;;;;;10188752;28;20039;-78
2023/03/05 00:42:45;;;;;;;39.17;16.63;;;;;;;;;;10202621;29;20067;-80
2023/03/05 00:47:46;;;;;;;32.83;15.00;;;;;;;;;;10202578;29;20059;-79
2023/03/05 00:52:49;;;;;;;35.67;15.57;;;;;;;;;;10185220;29;20146;-80
2023/03/05 00:57:51;;;;;;;36.20;15.10;;;;;;;;;;10179298;29;20059;-82
2023/03/05 01:02:53;;;;;;;34.95;15.63;;;;;;;;;;10203161;29;20044;-82
2023/03/05 01:07:59;;;;;;;37.20;16.88;;;;;;;;;;10215404;29;20088;-80
2023/03/05 01:13:03;;;;;;;34.53;15.20;;;;;;;;;;10191927;29;20879;-81
2023/03/05 01:18:06;;;;;;;38.17;18.05;;;;;;;;;;10226023;29;20066;-82
2023/03/05 01:23:08;;;;;;;35.33;16.13;;;;;;;;;;10246894;29;20048;-80
2023/03/05 01:28:09;;;;;;;34.88;15.38;;;;;;;;;;10233362;29;20047;-79
2023/03/05 01:33:09;;;;;;;39.90;16.70;;;;;;;;;;10217964;29;20137;-78
2023/03/05 01:38:10;;;;;;;35.97;17.40;;;;;;;;;;10207780;29;20055;-78
2023/03/05 01:43:10;;;;;;;38.35;16.73;;;;;;;;;;10197324;29;20202;-77
2023/03/05 01:48:11;;;;;;;36.58;16.00;;;;;;;;;;10204296;29;20130;-81
2023/03/05 01:53:11;;;;;;;32.50;14.73;;;;;;;;;;10200776;29;20055;-78
2023/03/05 01:58:12;;;;;;;37.10;15.88;;;;;;;;;;10181470;29;20051;-78
2023/03/05 02:03:13;;;;;;;34.90;15.63;;;;;;;;;;10197782;29;20428;-78
2023/03/05 02:08:15;;;;;;;32.65;14.77;;;;;;;;;;10175962;29;20052;-77
2023/03/05 02:13:21;;;;;;;30.13;15.38;;;;;;;;;;10191786;29;20054;-79
2023/03/05 02:18:22;;;;;;;35.85;15.52;;;;;;;;;;10159533;29;20511;-78
2023/03/05 02:23:28;;;;;;;28.65;13.40;;;;;;;;;;10186262;29;20052;-79
2023/03/05 02:28:39;;;;;;;28.15;14.32;;;;;;;;;;10175843;29;20051;-78
2023/03/05 02:33:42;;;;;;;34.78;13.90;;;;;;;;;;10196848;29;20071;-79
2023/03/05 02:38:52;;;;;;;29.33;14.43;;;;;;;;;;10198239;29;20066;-79
2023/03/05 02:43:54;;;;;;;27.25;12.50;;;;;;;;;;10166387;29;20055;-76
2023/03/05 02:48:54;;;;;;;35.75;13.43;;;;;;;;;;10188910;29;20060;-80
2023/03/05 02:53:57;;;;;;;26.52;12.07;;;;;;;;;;10212629;29;20618;-80
2023/03/05 02:59:00;;;;;;;27.20;12.23;;;;;;;;;;10173686;29;20121;-78
2023/03/05 03:04:02;;;;;;;28.30;11.35;;;;;;;;;;10182835;29;20139;-80
2023/03/05 03:09:03;;;;;;;23.63;11.63;;;;;;;;;;10200541;29;20051;-77
2023/03/05 03:14:03;;;;;;;23.40;11.38;;;;;;;;;;10200226;29;20055;-77
2023/03/05 03:19:04;;;;;;;21.40;10.20;;;;;;;;;;10199636;29;20160;-79
2023/03/05 03:24:04;;;;;;;26.48;10.98;;;;;;;;;;10199265;29;20412;-79
2023/03/05 03:29:05;;;;;;;21.58;10.18;;;;;;;;;;10164793;29;20054;-79
2023/03/05 03:34:07;;;;;;;23.52;10.38;;;;;;;;;;10203127;29;20127;-78
2023/03/05 03:39:10;;;;;;;22.60;9.70;;;;;;;;;;10182863;29;20102;-77
2023/03/05 03:44:11;;;;;;;;;;;;;;;;;;10197422;29;20048;-77
2023/03/05 03:49:18;;;;;;;20.67;9.00;;;;;;;;;;10205938;29;20758;-78
2023/03/05 03:54:19;;;;;;;22.95;11.35;;;;;;;;;;10188407;29;20321;-76
2023/03/05 03:59:19;;;;;;;22.17;10.02;;;;;;;;;;10200495;29;20039;-79
2023/03/05 04:04:20;;;;;;;23.50;11.23;;;;;;;;;;10252308;29;20055;-79
2023/03/05 04:09:21;;;;;;;25.83;11.40;;;;;;;;;;10258454;29;20058;-77
2023/03/05 04:14:23;;;;;;;27.17;12.48;;;;;;;;;;10239589;29;20095;-78
2023/03/05 04:19:24;;;;;;;27.75;12.65;;;;;;;;;;10198136;29;21280;-77
2023/03/05 04:24:25;;;;;;;25.77;12.20;;;;;;;;;;10198664;29;20052;-78
2023/03/05 04:29:27;;;;;;;29.08;13.55;;;;;;;;;;10213642;29;20055;-79
2023/03/05 04:34:27;;;;;;;27.52;13.35;;;;;;;;;;10223334;29;20051;-79
2023/03/05 04:39:29;;;;;;;26.98;13.25;;;;;;;;;;10236569;28;20047;-79
2023/03/05 04:44:30;;;;;;;33.55;15.30;;;;;;;;;;10257846;28;20048;-78
2023/03/05 04:49:30;;;;;;;30.85;14.25;;;;;;;;;;10218293;29;20051;-77
2023/03/05 04:54:31;;;;;;;32.87;14.30;;;;;;;;;;10198301;29;20086;-75
2023/03/05 04:59:32;;;;;;;32.08;15.02;;;;;;;;;;10202549;29;20287;-74
2023/03/05 05:04:34;;;;;;;33.08;14.82;;;;;;;;;;10161458;29;20051;-75
2023/03/05 05:09:36;;;;;;;34.67;15.07;;;;;;;;;;10174702;29;20051;-79
2023/03/05 05:14:37;;;;;;;37.53;16.67;;;;;;;;;;10191940;29;20175;-77
2023/03/05 05:19:37;;;;;;;35.75;15.55;;;;;;;;;;10194701;29;20099;-78
2023/03/05 05:24:38;;;;;;;37.67;15.65;;;;;;;;;;10175400;29;20055;-75
2023/03/05 05:29:38;;;;;;;34.42;16.02;;;;;;;;;;10199069;28;20063;-79
2023/03/05 05:34:39;;;;;;;33.40;14.70;;;;;;;;;;10197535;29;20488;-78
2023/03/05 05:39:41;;;;;;;32.42;15.80;;;;;;;;;;10196794;29;20738;-77
2023/03/05 05:44:42;;;;;;;39.25;15.45;;;;;;;;;;10178643;28;20053;-77
2023/03/05 05:49:42;;;;;;;35.85;14.43;;;;;;;;;;10180025;29;20473;-77
2023/03/05 05:54:43;;;;;;;35.92;16.10;;;;;;;;;;10173643;29;20051;-79
2023/03/05 05:59:43;;;;;;;38.42;16.75;;;;;;;;;;10190568;29;20551;-79
2023/03/05 06:04:45;;;;;;;37.70;15.82;;;;;;;;;;10195539;29;20055;-80
2023/03/05 06:09:46;;;;;;;37.40;16.27;;;;;;;;;;10186262;29;20058;-79
2023/03/05 06:14:48;;;;;;;37.75;14.68;;;;;;;;;;10197318;29;20059;-77
2023/03/05 06:19:49;;;;;;;41.30;16.88;;;;;;;;;;10221765;29;20051;-78
2023/03/05 06:24:49;;;;;;;33.97;16.00;;;;;;;;;;10227329;29;20058;-79
2023/03/05 06:29:53;;;;;;;41.93;16.37;;;;;;;;;;10203506;29;20479;-77
2023/03/05 06:34:57;;;;;;;41.20;17.27;;;;;;;;;;10180198;29;20724;-77
2023/03/05 06:40:00;;;;;;;40.72;18.85;;;;;;;;;;10209081;29;20055;-79
2023/03/05 06:45:01;;;;;;;42.65;17.58;;;;;;;;;;10204760;29;20465;-80
2023/03/05 06:50:09;;;;;;;43.03;17.73;;;;;;;;;;10195235;29;20112;-81
2023/03/05 06:55:11;;;;;;;37.35;16.55;;;;;;;;;;10227862;29;20059;-79
2023/03/05 07:00:12;;;;;;;44.88;17.85;;;;;;;;;;10185337;29;20051;-77
2023/03/05 07:05:12;;;;;;;40.70;18.05;;;;;;;;;;10208759;29;20043;-78
2023/03/05 07:10:13;;;;;;;39.22;17.10;;;;;;;;;;10204056;29;20104;-78
2023/03/05 07:15:13;;;;;;;44.58;18.42;;;;;;;;;;10203653;29;20067;-78
2023/03/05 07:20:15;;;;;;;38.37;16.80;;;;;;;;;;10205629;29;20062;-82
2023/03/05 07:25:20;;;;;;;40.50;17.23;;;;;;;;;;10212005;29;20307;-78
2023/03/05 07:30:22;;;;;;;34.58;16.25;;;;;;;;;;10209970;29;20092;-80
2023/03/05 07:35:25;;;;;;;34.33;16.08;;;;;;;;;;10188993;29;20059;-78
2023/03/05 07:40:25;;;;;;;37.75;15.35;;;;;;;;;;10191801;29;20099;-81
2023/03/05 07:45:28;;;;;;;34.03;15.57;;;;;;;;;;10214079;29;20047;-81
2023/03/05 07:50:29;;;;;;;31.93;14.90;;;;;;;;;;10228038;29;20884;-81
2023/03/05 07:55:30;;;;;;;33.05;14.10;;;;;;;;;;10261949;28;20070;-80
2023/03/05 08:00:35;;;;;;;31.90;14.15;;;;;;;;;;10204794;29;20451;-80
2023/03/05 08:05:40;;;;;;;31.13;13.68;;;;;;;;;;10191994;29;21077;-82
2023/03/05 08:10:42;;;;;;;30.63;13.55;;;;;;;;;;10203327;29;20047;-80
2023/03/05 08:15:43;;;;;;;26.40;11.93;;;;;;;;;;10219306;29;20137;-81
2023/03/05 08:20:44;;;;;;;28.50;12.32;;;;;;;;;;10234651;29;20068;-80
2023/03/05 08:25:45;;;;;;;23.95;10.43;;;;;;;;;;10225282;29;20066;-79
2023/03/05 08:30:46;;;;;;;19.33;9.40;;;;;;;;;;10220255;29;20055;-78
2023/03/05 08:35:47;;;;;;;18.55;7.78;;;;;;;;;;10224993;29;20470;-80
2023/03/05 08:40:47;;;;;;;13.00;6.40;;;;;;;;;;10205637;29;20050;-80
2023/03/05 08:45:50;;;;;;;14.27;6.40;;;;;;;;;;10198282;29;20492;-80
2023/03/05 08:50:50;;;;;;;11.70;6.57;;;;;;;;;;10180711;29;20854;-79
2023/03/05 08:55:54;;;;;;;12.40;5.93;;;;;;;;;;10197349;29;20151;-79
2023/03/05 09:00:55;;;;;;;11.75;5.85;;;;;;;;;;10214802;29;20080;-80
2023/03/05 09:05:59;;;;;;;15.18;6.57;;;;;;;;;;10197471;29;20159;-80
2023/03/05 09:11:01;;;;;;;11.00;6.03;;;;;;;;;;10202620;29;20858;-79
2023/03/05 09:16:03;;;;;;;11.48;6.40;;;;;;;;;;10198709;29;20516;-78
2023/03/05 09:21:08;;;;;;;12.82;5.90;;;;;;;;;;10196340;29;20044;-79
2023/03/05 09:26:11;;;;;;;7.97;4.75;;;;;;;;;;10196519;29;20059;-79
2023/03/05 09:31:12;;;;;;;9.77;4.30;;;;;;;;;;10186686;29;20056;-80
2023/03/05 09:36:24;;;;;;;5.53;3.75;;;;;;;;;;10198919;29;20060;-79
2023/03/05 09:41:29;;;;;;;8.57;3.53;;;;;;;;;;10197838;29;20146;-78
2023/03/05 09:46:39;;;;;;;6.78;3.10;;;;;;;;;;10192648;29;20471;-80
2023/03/05 09:51:41;;;;;;;13.65;3.40;;;;;;;;;;10192203;29;20048;-77
2023/03/05 09:56:50;;;;;;;9.05;3.03;;;;;;;;;;10198319;28;20083;-80
2023/03/05 10:01:51;;;;;;;3.35;2.47;;;;;;;;;;10199311;29;20113;-79
2023/03/05 10:06:57;;;;;;;4.82;2.80;;;;;;;;;;10195146;29;20497;-79
2023/03/05 10:12:01;;;;;;;5.70;2.50;;;;;;;;;;10176026;29;20051;-80
2023/03/05 10:17:02;;;;;;;7.35;2.47;;;;;;;;;;10199236;29;20197;-78
2023/03/05 10:22:15;;;;;;;5.50;3.83;;;;;;;;;;10182550;28;20116;-77
2023/03/05 10:27:21;;;;;;;5.97;2.83;;;;;;;;;;10199602;29;20309;-78
2023/03/05 10:32:36;;;;;;;4.70;2.83;;;;;;;;;;10180505;29;20084;-79
2023/03/05 10:37:49;;;;;;;3.35;1.92;;;;;;;;;;10195845;29;20059;-77
2023/03/05 10:42:59;;;;;;;3.43;2.33;;;;;;;;;;10216647;29;20100;-79
2023/03/05 10:48:22;;;;;;;4.95;2.40;;;;;;;;;;10180930;29;20071;-82
2023/03/05 10:53:34;;;;;;;5.78;2.30;;;;;;;;;;10202079;29;20780;-78
2023/03/05 10:58:34;;;;;;;4.80;2.50;;;;;;;;;;10199854;29;20055;-77
2023/03/05 11:03:50;;;;;;;4.65;2.88;;;;;;;;;;10241277;29;20052;-83
2023/03/05 11:08:51;;;;;;;5.35;2.25;;;;;;;;;;10227776;29;20051;-81
2023/03/05 11:13:53;;;;;;;5.63;2.33;;;;;;;;;;10222686;29;20055;-80
2023/03/05 11:19:12;;;;;;;5.07;2.33;;;;;;;;;;10206347;29;20055;-79
2023/03/05 11:24:15;;;;;;;4.50;2.50;;;;;;;;;;10218841;29;20507;-80
2023/03/05 11:29:20;;;;;;;3.15;1.92;;;;;;;;;;10203004;29;20055;-80
2023/03/05 11:34:25;;;;;;;3.85;2.22;;;;;;;;;;10185127;29;20063;-82
2023/03/05 11:39:29;;;;;;;3.85;1.85;;;;;;;;;;10184817;29;20051;-79
2023/03/05 11:44:51;;;;;;;2.15;1.83;;;;;;;;;;10181755;28;20132;-79
2023/03/05 11:49:55;;;;;;;2.78;1.50;;;;;;;;;;10198598;29;20055;-78
2023/03/05 11:55:13;;;;;;;1.73;1.50;;;;;;;;;;10188264;29;20664;-78
2023/03/05 12:00:18;;;;;;;2.70;1.50;;;;;;;;;;10217102;29;20075;-80
2023/03/05 12:05:20;;;;;;;1.92;1.30;;;;;;;;;;10178986;29;20055;-80
2023/03/05 12:10:22;;;;;;;3.00;1.63;;;;;;;;;;10200565;29;20061;-78
2023/03/05 12:15:26;;;;;;;3.87;1.50;;;;;;;;;;10204483;29;20063;-78
2023/03/05 12:20:33;;;;;;;4.20;1.50;;;;;;;;;;10201497;28;20078;-79
2023/03/05 12:25:45;;;;;;;2.22;1.55;;;;;;;;;;10245169;29;20067;-79
2023/03/05 12:30:47;;;;;;;3.15;1.48;;;;;;;;;;10217245;29;20066;-80
2023/03/05 12:35:47;;;;;;;3.05;1.83;;;;;;;;;;10206829;29;20060;-77
2023/03/05 12:40:49;;;;;;;4.80;2.10;;;;;;;;;;10206824;29;20047;-79
2023/03/05 12:45:51;;;;;;;4.68;2.22;;;;;;;;;;10191488;29;20851;-77
2023/03/05 12:50:56;;;;;;;3.35;2.38;;;;;;;;;;10198847;29;20048;-79
2023/03/05 12:56:00;;;;;;;3.03;1.88;;;;;;;;;;10183787;29;20464;-80
2023/03/05 13:01:21;;;;;;;2.42;1.88;;;;;;;;;;10185038;29;20055;-80
2023/03/05 13:06:30;;;;;;;3.92;1.67;;;;;;;;;;10176571;29;20516;-79
2023/03/05 13:11:33;;;;;;;2.67;1.63;;;;;;;;;;10177907;29;20577;-80
2023/03/05 13:16:37;;;;;;;3.33;1.88;;;;;;;;;;10170053;29;20190;-79
2023/03/05 13:21:39;;;;;;;2.95;1.70;;;;;;;;;;10182821;29;20084;-80
2023/03/05 13:26:40;;;;;;;4.13;1.98;;;;;;;;;;10196268;29;20560;-78
2023/03/05 13:31:45;;;;;;;2.55;1.90;;;;;;;;;;10181690;29;20059;-78
2023/03/05 13:36:47;;;;;;;2.75;1.83;;;;;;;;;;10198566;29;20063;-80
2023/03/05 13:41:58;;;;;;;3.40;2.08;;;;;;;;;;10196994;29;20107;-80
2023/03/05 13:47:18;;;;;;;6.20;2.42;;;;;;;;;;10202665;29;20131;-80
2023/03/05 13:52:26;;;;;;;3.72;2.50;;;;;;;;;;10199419;29;20472;-80
2023/03/05 13:57:32;;;;;;;5.45;2.72;;;;;;;;;;10200266;29;20060;-81
2023/03/05 14:02:32;;;;;;;4.32;2.50;;;;;;;;;;10196670;29;20134;-77
2023/03/05 14:07:38;;;;;;;5.22;2.63;;;;;;;;;;10188351;29;20047;-80
2023/03/05 14:12:41;;;;;;;4.90;2.50;;;;;;;;;;10198235;29;20040;-78
2023/03/05 14:17:42;;;;;;;;;;;;;;;;;;10200897;29;20553;-78
2023/03/05 14:22:44;;;;;;;3.90;2.60;;;;;;;;;;10204816;29;19915;-78
2023/03/05 14:27:46;;;;;;;5.28;2.83;;;;;;;;;;10205171;29;20310;-79
2023/03/05 14:32:55;;;;;;;5.05;3.10;;;;;;;;;;10202202;28;20086;-78
2023/03/05 14:38:00;;;;;;;6.28;2.75;;;;;;;;;;10206438;29;20051;-77
2023/03/05 14:43:05;;;;;;;4.87;2.97;;;;;;;;;;10220568;29;20096;-82
2023/03/05 14:48:07;;;;;;;5.40;3.85;;;;;;;;;;10199879;29;20059;-79
2023/03/05 14:53:09;;;;;;;5.80;3.10;;;;;;;;;;10214985;29;20043;-75
2023/03/05 14:58:11;;;;;;;4.82;3.25;;;;;;;;;;10209429;29;20081;-80
2023/03/05 15:03:11;;;;;;;5.82;3.53;;;;;;;;;;10212912;29;20039;-78
2023/03/05 15:08:18;;;;;;;6.35;2.72;;;;;;;;;;10208088;29;20104;-79
2023/03/05 15:13:19;;;;;;;4.53;3.00;;;;;;;;;;10204657;29;20035;-79
2023/03/05 15:18:20;;;;;;;8.73;4.32;;;;;;;;;;10237369;29;20047;-76
2023/03/05 15:23:20;;;;;;;6.40;4.10;;;;;;;;;;10234493;28;20474;-79
2023/03/05 15:28:21;;;;;;;5.18;2.90;;;;;;;;;;10239113;29;20044;-80
2023/03/05 15:33:21;;;;;;;5.10;2.70;;;;;;;;;;10250535;29;20052;-80
2023/03/05 15:38:23;;;;;;;5.53;3.15;;;;;;;;;;10260016;29;20063;-79
2023/03/05 15:43:25;;;;;;;4.57;2.92;;;;;;;;;;10252737;29;20052;-78
2023/03/05 15:48:25;;;;;;;5.50;2.85;;;;;;;;;;10221608;29;20047;-79
2023/03/05 15:53:26;;;;;;;5.53;2.75;;;;;;;;;;10207603;29;20075;-80
2023/03/05 15:58:27;;;;;;;4.78;3.22;;;;;;;;;;10209344;29;20639;-79
2023/03/05 16:03:27;;;;;;;5.75;3.83;;;;;;;;;;10208010;29;20130;-79
2023/03/05 16:08:27;;;;;;;5.65;3.65;;;;;;;;;;10211648;29;20054;-79
2023/03/05 16:13:28;;;;;;;5.60;3.20;;;;;;;;;;10209473;29;20055;-79
2023/03/05 16:18:32;;;;;;;5.78;3.45;;;;;;;;;;10188632;29;20560;-78
2023/03/05 16:23:33;;;;;;;7.90;3.75;;;;;;;;;;10204650;29;20134;-78
2023/03/05 16:28:34;;;;;;;6.75;3.35;;;;;;;;;;10210919;29;20051;-80
2023/03/05 16:33:36;;;;;;;6.75;4.05;;;;;;;;;;10205414;28;20178;-79
2023/03/05 16:38:40;;;;;;;5.60;3.60;;;;;;;;;;10204645;29;20067;-77
2023/03/05 16:43:43;;;;;;;8.25;4.13;;;;;;;;;;10206955;29;20380;-78
2023/03/05 16:48:44;;;;;;;;;;;;;;;;;;10205598;29;20062;-78
2023/03/05 16:53:47;;;;;;;7.40;4.47;;;;;;;;;;10207434;29;19952;-78
2023/03/05 16:58:49;;;;;;;8.00;4.00;;;;;;;;;;10171303;28;20073;-78
2023/03/05 17:03:49;;;;;;;6.95;4.30;;;;;;;;;;10189919;29;20052;-79
2023/03/05 17:08:52;;;;;;;7.65;4.60;;;;;;;;;;10205033;29;20460;-79
2023/03/05 17:13:53;;;;;;;7.53;4.22;;;;;;;;;;10200483;29;20043;-80
2023/03/05 17:18:57;;;;;;;7.25;4.28;;;;;;;;;;10199156;28;20055;-78
2023/03/05 17:23:57;;;;;;;8.77;4.60;;;;;;;;;;10185597;29;20046;-78
2023/03/05 17:28:58;;;;;;;7.95;4.10;;;;;;;;;;10204257;29;20044;-78
2023/03/05 17:33:59;;;;;;;8.52;4.95;;;;;;;;;;10172142;29;20068;-78
2023/03/05 17:38:59;;;;;;;7.18;4.25;;;;;;;;;;10202555;29;20495;-79
2023/03/05 17:44:04;;;;;;;9.73;5.50;;;;;;;;;;10184432;29;20078;-81
2023/03/05 17:49:04;;;;;;;7.95;5.43;;;;;;;;;;10191860;29;20055;-79
2023/03/05 17:54:05;;;;;;;7.53;4.40;;;;;;;;;;10205901;28;20047;-81
2023/03/05 17:59:07;;;;;;;8.40;4.60;;;;;;;;;;10201188;29;20547;-77
2023/03/05 18:04:10;;;;;;;10.02;5.05;;;;;;;;;;10187331;29;20154;-79
2023/03/05 18:09:12;;;;;;;8.25;4.50;;;;;;;;;;10201174;29;20036;-78
2023/03/05 18:14:13;;;;;;;8.93;4.88;;;;;;;;;;10216471;29;20102;-79
2023/03/05 18:19:14;;;;;;;8.80;4.78;;;;;;;;;;10200998;28;20048;-79
2023/03/05 18:24:16;;;;;;;8.32;4.90;;;;;;;;;;10195131;29;20138;-80
2023/03/05 18:29:21;;;;;;;10.18;4.90;;;;;;;;;;10198233;29;20040;-83
2023/03/05 18:34:24;;;;;;;12.45;6.55;;;;;;;;;;10174639;29;20093;-80
2023/03/05 18:39:24;;;;;;;10.87;5.67;;;;;;;;;;10210183;29;20055;-80
2023/03/05 18:44:25;;;;;;;12.18;6.30;;;;;;;;;;10181734;29;20134;-79
2023/03/05 18:49:27;;;;;;;10.43;5.72;;;;;;;;;;10230750;29;20043;-78
2023/03/05 18:54:28;;;;;;;12.52;6.15;;;;;;;;;;10247740;29;20059;-79
2023/03/05 18:59:30;;;;;;;13.65;6.85;;;;;;;;;;10219090;29;20058;-79
2023/03/05 19:04:32;;;;;;;11.32;6.20;;;;;;;;;;10185319;29;20483;-79
2023/03/05 19:09:51;;;;;;;11.30;6.07;;;;;;;;;;10183715;29;20111;-79
2023/03/05 19:14:51;;;;;;;11.40;5.55;;;;;;;;;;10209485;29;20055;-80
2023/03/05 19:19:54;;;;;;;9.65;5.30;;;;;;;;;;10187776;29;20043;-79
2023/03/05 19:24:54;;;;;;;11.13;5.87;;;;;;;;;;10194486;29;20056;-79
2023/03/05 19:29:55;;;;;;;9.57;5.07;;;;;;;;;;10202258;29;20039;-81
2023/03/05 19:34:56;;;;;;;12.32;6.65;;;;;;;;;;10185873;29;20047;-81
2023/03/05 19:39:57;;;;;;;12.63;6.88;;;;;;;;;;10188504;29;20066;-78
2023/03/05 19:44:57;;;;;;;11.95;5.95;;;;;;;;;;10189365;29;20047;-78
2023/03/05 19:50:01;;;;;;;11.18;5.60;;;;;;;;;;10204673;29;20043;-80
2023/03/05 19:55:03;;;;;;;11.50;6.57;;;;;;;;;;10194756;29;20083;-81
2023/03/05 20:00:03;;;;;;;16.63;7.00;;;;;;;;;;10199737;28;20404;-85
2023/03/05 20:05:05;;;;;;;15.85;6.95;;;;;;;;;;10197937;29;20552;-79
2023/03/05 20:10:07;;;;;;;11.98;6.63;;;;;;;;;;10202758;29;20043;-82
2023/03/05 20:15:09;;;;;;;16.70;8.57;;;;;;;;;;10201734;29;20147;-80
2023/03/05 20:20:14;;;;;;;17.67;8.90;;;;;;;;;;10197937;29;20052;-79
2023/03/05 20:25:16;;;;;;;15.35;9.02;;;;;;;;;;10200764;29;20048;-82
2023/03/05 20:30:18;;;;;;;16.10;9.03;;;;;;;;;;10185892;29;20062;-81
2023/03/05 20:35:18;;;;;;;16.48;10.02;;;;;;;;;;10203539;29;20063;-79
2023/03/05 20:40:19;;;;;;;20.17;10.63;;;;;;;;;;10204565;29;20056;-80
2023/03/05 20:45:21;;;;;;;17.60;10.02;;;;;;;;;;10183487;29;20075;-80
2023/03/05 20:50:22;;;;;;;16.52;9.35;;;;;;;;;;10202107;29;20047;-80
2023/03/05 20:55:27;;;;;;;18.92;10.40;;;;;;;;;;10205821;29;20163;-79
2023/03/05 21:00:27;;;;;;;16.70;9.73;;;;;;;;;;10190002;29;20053;-80
2023/03/05 21:05:29;;;;;;;14.68;8.95;;;;;;;;;;10186645;29;20032;-78
2023/03/05 21:10:32;;;;;;;18.33;9.77;;;;;;;;;;10197193;29;20043;-81
2023/03/05 21:15:33;;;;;;;14.77;9.45;;;;;;;;;;10205148;29;20067;-80
2023/03/05 21:20:33;;;;;;;15.15;8.95;;;;;;;;;;10205546;29;20047;-79
2023/03/05 21:25:34;;;;;;;20.27;9.07;;;;;;;;;;10196445;29;20043;-80
2023/03/05 21:30:39;;;;;;;19.70;8.82;;;;;;;;;;10179924;29;20887;-81
2023/03/05 21:35:43;;;;;;;19.65;8.95;;;;;;;;;;10189732;29;20062;-81
2023/03/05 21:40:47;;;;;;;16.90;8.23;;;;;;;;;;10204072;29;20059;-80
2023/03/05 21:45:49;;;;;;;15.55;8.38;;;;;;;;;;10208075;29;20052;-82
2023/03/05 21:50:50;;;;;;;16.65;8.60;;;;;;;;;;10219952;29;20043;-79
2023/03/05 21:56:09;;;;;;;15.50;8.02;;;;;;;;;;10216518;29;20135;-80
2023/03/05 22:01:10;;;;;;;20.25;8.73;;;;;;;;;;10219686;29;20059;-81
2023/03/05 22:06:13;;;;;;;15.98;7.90;;;;;;;;;;10233899;29;20051;-83
2023/03/05 22:11:15;;;;;;;17.38;9.05;;;;;;;;;;10257262;28;20043;-82
2023/03/05 22:16:21;;;;;;;16.63;8.60;;;;;;;;;;10249357;28;20036;-81
2023/03/05 22:21:29;;;;;;;21.50;10.00;;;;;;;;;;10236850;29;20107;-83
2023/03/05 22:26:35;;;;;;;17.67;9.18;;;;;;;;;;10235816;29;20032;-83
2023/03/05 22:31:38;;;;;;;16.27;8.52;;;;;;;;;;10243430;28;20055;-82
2023/03/05 22:36:39;;;;;;;16.23;9.15;;;;;;;;;;10233784;29;20062;-83
2023/03/05 22:41:40;;;;;;;16.17;8.18;;;;;;;;;;10241416;29;20046;-84
2023/03/05 22:46:43;;;;;;;16.67;8.82;;;;;;;;;;10235565;29;20035;-80
2023/03/05 22:51:43;;;;;;;19.20;9.27;;;;;;;;;;10201604;29;20104;-81
2023/03/05 22:56:44;;;;;;;17.92;9.18;;;;;;;;;;10186794;29;20523;-80
2023/03/05 23:01:46;;;;;;;14.68;8.15;;;;;;;;;;10191973;29;20497;-81
2023/03/05 23:06:47;;;;;;;17.70;9.02;;;;;;;;;;10203955;29;20047;-81
2023/03/05 23:11:49;;;;;;;15.35;8.27;;;;;;;;;;10227944;29;20067;-79
2023/03/05 23:16:50;;;;;;;16.92;8.73;;;;;;;;;;10208644;29;20071;-78
2023/03/05 23:21:51;;;;;;;19.88;9.30;;;;;;;;;;10185614;29;20127;-78
2023/03/05 23:26:51;;;;;;;15.05;8.30;;;;;;;;;;10207671;29;20110;-80
2023/03/05 23:31:55;;;;;;;16.00;8.82;;;;;;;;;;10189355;28;20115;-79
2023/03/05 23:36:55;;;;;;;;;;;;;;;;;;10211896;29;20059;-79
2023/03/05 23:41:57;;;;;;;17.05;8.68;;;;;;;;;;10186614;29;20650;-80
2023/03/05 23:46:58;;;;;;;19.95;9.20;;;;;;;;;;10164217;29;20665;-79
2023/03/05 23:52:01;;;;;;;17.30;8.67;;;;;;;;;;10202537;29;20075;-81
2023/03/05 23:57:02;;;;;;;21.17;8.43;;;;;;;;;;10209548;29;20063;-80
